sensor_id;sensor_type;location;lat;lon;timestamp;P1;durP1;ratioP1;P2;durP2;ratioP2
9801;SDS011;4940;50.900;4.672;2022-07-29T00:01:50;2.58;;;1.40;;
9801;SDS011;4940;50.900;4.672;2022-07-29T00:04:18;3.45;;;1.63;;
9801;SDS011;4940;50.900;4.672;2022-07-29T00:06:45;1.40;;;1.30;;
9801;SDS011;4940;50.900;4.672;2022-07-29T00:09:13;5.68;;;1.60;;
9801;SDS011;4940;50.900;4.672;2022-07-29T00:11:40;4.38;;;1.70;;
9801;SDS011;4940;50.900;4.672;2022-07-29T00:14:07;1.52;;;1.25;;
9801;SDS011;4940;50.900;4.672;2022-07-29T00:16:36;4.20;;;1.60;;
9801;SDS011;4940;50.900;4.672;2022-07-29T00:19:04;1.95;;;1.50;;
9801;SDS011;4940;50.900;4.672;2022-07-29T00:21:31;1.77;;;1.50;;
9801;SDS011;4940;50.900;4.672;2022-07-29T00:23:58;2.60;;;1.50;;
9801;SDS011;4940;50.900;4.672;2022-07-29T00:26:25;4.93;;;1.65;;
9801;SDS011;4940;50.900;4.672;2022-07-29T00:28:56;3.63;;;1.58;;
9801;SDS011;4940;50.900;4.672;2022-07-29T00:31:24;1.98;;;1.42;;
9801;SDS011;4940;50.900;4.672;2022-07-29T00:33:52;4.53;;;1.60;;
9801;SDS011;4940;50.900;4.672;2022-07-29T00:36:19;4.28;;;1.77;;
9801;SDS011;4940;50.900;4.672;2022-07-29T00:38:46;4.70;;;1.80;;
9801;SDS011;4940;50.900;4.672;2022-07-29T00:41:14;4.80;;;1.60;;
9801;SDS011;4940;50.900;4.672;2022-07-29T00:43:41;2.90;;;1.70;;
9801;SDS011;4940;50.900;4.672;2022-07-29T00:46:09;2.60;;;1.65;;
9801;SDS011;4940;50.900;4.672;2022-07-29T00:48:36;4.70;;;1.88;;
9801;SDS011;4940;50.900;4.672;2022-07-29T00:51:05;3.55;;;1.60;;
9801;SDS011;4940;50.900;4.672;2022-07-29T00:53:35;3.80;;;2.10;;
9801;SDS011;4940;50.900;4.672;2022-07-29T00:56:03;5.80;;;2.00;;
9801;SDS011;4940;50.900;4.672;2022-07-29T00:58:31;2.95;;;1.95;;
9801;SDS011;4940;50.900;4.672;2022-07-29T01:00:58;3.83;;;1.75;;
9801;SDS011;4940;50.900;4.672;2022-07-29T01:03:26;4.70;;;2.05;;
9801;SDS011;4940;50.900;4.672;2022-07-29T01:05:53;2.58;;;1.77;;
9801;SDS011;4940;50.900;4.672;2022-07-29T01:08:22;3.53;;;1.95;;
9801;SDS011;4940;50.900;4.672;2022-07-29T01:10:50;3.72;;;1.92;;
9801;SDS011;4940;50.900;4.672;2022-07-29T01:13:18;2.00;;;1.60;;
9801;SDS011;4940;50.900;4.672;2022-07-29T01:15:47;2.88;;;1.92;;
9801;SDS011;4940;50.900;4.672;2022-07-29T01:18:21;2.47;;;1.58;;
9801;SDS011;4940;50.900;4.672;2022-07-29T01:20:56;3.15;;;2.22;;
9801;SDS011;4940;50.900;4.672;2022-07-29T01:23:43;4.13;;;1.90;;
9801;SDS011;4940;50.900;4.672;2022-07-29T01:26:27;4.50;;;1.90;;
9801;SDS011;4940;50.900;4.672;2022-07-29T01:29:03;2.35;;;1.67;;
9801;SDS011;4940;50.900;4.672;2022-07-29T01:31:33;5.10;;;1.70;;
9801;SDS011;4940;50.900;4.672;2022-07-29T01:34:08;3.40;;;1.70;;
9801;SDS011;4940;50.900;4.672;2022-07-29T01:36:48;2.33;;;1.80;;
9801;SDS011;4940;50.900;4.672;2022-07-29T01:39:23;3.25;;;1.92;;
9801;SDS011;4940;50.900;4.672;2022-07-29T01:41:57;2.13;;;1.60;;
9801;SDS011;4940;50.900;4.672;2022-07-29T01:44:32;4.07;;;1.90;;
9801;SDS011;4940;50.900;4.672;2022-07-29T01:47:05;3.03;;;2.05;;
9801;SDS011;4940;50.900;4.672;2022-07-29T01:49:39;3.13;;;1.98;;
9801;SDS011;4940;50.900;4.672;2022-07-29T01:52:13;2.80;;;2.00;;
9801;SDS011;4940;50.900;4.672;2022-07-29T01:54:47;3.35;;;2.05;;
9801;SDS011;4940;50.900;4.672;2022-07-29T01:57:18;3.08;;;1.90;;
9801;SDS011;4940;50.900;4.672;2022-07-29T01:59:50;5.10;;;2.00;;
9801;SDS011;4940;50.900;4.672;2022-07-29T02:02:18;5.55;;;2.05;;
9801;SDS011;4940;50.900;4.672;2022-07-29T02:04:48;2.60;;;1.70;;
9801;SDS011;4940;50.900;4.672;2022-07-29T02:07:17;3.65;;;1.67;;
9801;SDS011;4940;50.900;4.672;2022-07-29T02:09:47;4.97;;;2.08;;
9801;SDS011;4940;50.900;4.672;2022-07-29T02:12:17;2.97;;;2.10;;
9801;SDS011;4940;50.900;4.672;2022-07-29T02:14:47;3.08;;;1.67;;
9801;SDS011;4940;50.900;4.672;2022-07-29T02:17:18;2.50;;;1.70;;
9801;SDS011;4940;50.900;4.672;2022-07-29T02:19:50;3.13;;;1.90;;
9801;SDS011;4940;50.900;4.672;2022-07-29T02:22:19;3.58;;;1.90;;
9801;SDS011;4940;50.900;4.672;2022-07-29T02:24:48;3.75;;;2.00;;
9801;SDS011;4940;50.900;4.672;2022-07-29T02:27:17;3.10;;;2.03;;
9801;SDS011;4940;50.900;4.672;2022-07-29T02:29:45;2.42;;;1.80;;
9801;SDS011;4940;50.900;4.672;2022-07-29T02:32:14;2.30;;;1.77;;
9801;SDS011;4940;50.900;4.672;2022-07-29T02:34:44;2.88;;;2.00;;
9801;SDS011;4940;50.900;4.672;2022-07-29T02:37:13;6.90;;;2.00;;
9801;SDS011;4940;50.900;4.672;2022-07-29T02:39:44;2.75;;;1.98;;
9801;SDS011;4940;50.900;4.672;2022-07-29T02:42:14;2.97;;;1.75;;
9801;SDS011;4940;50.900;4.672;2022-07-29T02:44:43;3.80;;;2.00;;
9801;SDS011;4940;50.900;4.672;2022-07-29T02:47:13;4.68;;;2.13;;
9801;SDS011;4940;50.900;4.672;2022-07-29T02:49:47;2.38;;;1.80;;
9801;SDS011;4940;50.900;4.672;2022-07-29T02:52:20;3.13;;;2.10;;
9801;SDS011;4940;50.900;4.672;2022-07-29T02:54:51;4.28;;;1.90;;
9801;SDS011;4940;50.900;4.672;2022-07-29T02:57:22;3.95;;;1.90;;
9801;SDS011;4940;50.900;4.672;2022-07-29T02:59:59;2.17;;;1.98;;
9801;SDS011;4940;50.900;4.672;2022-07-29T03:02:30;6.88;;;2.00;;
9801;SDS011;4940;50.900;4.672;2022-07-29T03:05:03;5.40;;;1.90;;
9801;SDS011;4940;50.900;4.672;2022-07-29T03:07:32;6.97;;;2.15;;
9801;SDS011;4940;50.900;4.672;2022-07-29T03:10:01;5.43;;;2.33;;
9801;SDS011;4940;50.900;4.672;2022-07-29T03:12:29;2.78;;;1.95;;
9801;SDS011;4940;50.900;4.672;2022-07-29T03:14:57;4.60;;;2.08;;
9801;SDS011;4940;50.900;4.672;2022-07-29T03:17:26;4.43;;;1.98;;
9801;SDS011;4940;50.900;4.672;2022-07-29T03:19:54;3.60;;;1.92;;
9801;SDS011;4940;50.900;4.672;2022-07-29T03:22:23;5.15;;;1.58;;
9801;SDS011;4940;50.900;4.672;2022-07-29T03:24:51;3.85;;;1.80;;
9801;SDS011;4940;50.900;4.672;2022-07-29T03:27:18;3.60;;;1.90;;
9801;SDS011;4940;50.900;4.672;2022-07-29T03:29:46;3.22;;;2.00;;
9801;SDS011;4940;50.900;4.672;2022-07-29T03:32:13;3.20;;;2.10;;
9801;SDS011;4940;50.900;4.672;2022-07-29T03:34:40;2.38;;;2.00;;
9801;SDS011;4940;50.900;4.672;2022-07-29T03:37:07;5.45;;;1.92;;
9801;SDS011;4940;50.900;4.672;2022-07-29T03:39:38;2.55;;;1.98;;
9801;SDS011;4940;50.900;4.672;2022-07-29T03:42:08;2.33;;;1.95;;
9801;SDS011;4940;50.900;4.672;2022-07-29T03:44:38;5.30;;;2.20;;
9801;SDS011;4940;50.900;4.672;2022-07-29T03:47:06;1.98;;;1.77;;
9801;SDS011;4940;50.900;4.672;2022-07-29T03:49:36;2.80;;;1.92;;
9801;SDS011;4940;50.900;4.672;2022-07-29T03:52:04;3.40;;;1.95;;
9801;SDS011;4940;50.900;4.672;2022-07-29T03:54:32;2.22;;;1.75;;
9801;SDS011;4940;50.900;4.672;2022-07-29T03:57:01;2.20;;;1.80;;
9801;SDS011;4940;50.900;4.672;2022-07-29T03:59:29;3.67;;;1.90;;
9801;SDS011;4940;50.900;4.672;2022-07-29T04:01:59;4.72;;;1.95;;
9801;SDS011;4940;50.900;4.672;2022-07-29T04:04:28;2.55;;;1.88;;
9801;SDS011;4940;50.900;4.672;2022-07-29T04:06:58;2.22;;;1.90;;
9801;SDS011;4940;50.900;4.672;2022-07-29T04:09:25;2.63;;;2.05;;
9801;SDS011;4940;50.900;4.672;2022-07-29T04:11:52;5.32;;;2.17;;
9801;SDS011;4940;50.900;4.672;2022-07-29T04:14:21;3.22;;;2.00;;
9801;SDS011;4940;50.900;4.672;2022-07-29T04:16:48;5.07;;;1.95;;
9801;SDS011;4940;50.900;4.672;2022-07-29T04:19:15;3.45;;;2.28;;
9801;SDS011;4940;50.900;4.672;2022-07-29T04:21:42;3.33;;;2.03;;
9801;SDS011;4940;50.900;4.672;2022-07-29T04:24:10;3.20;;;2.28;;
9801;SDS011;4940;50.900;4.672;2022-07-29T04:26:37;2.30;;;1.98;;
9801;SDS011;4940;50.900;4.672;2022-07-29T04:29:05;4.95;;;1.85;;
9801;SDS011;4940;50.900;4.672;2022-07-29T04:31:34;4.00;;;2.20;;
9801;SDS011;4940;50.900;4.672;2022-07-29T04:34:01;4.10;;;2.15;;
9801;SDS011;4940;50.900;4.672;2022-07-29T04:36:28;4.03;;;2.10;;
9801;SDS011;4940;50.900;4.672;2022-07-29T04:38:55;3.67;;;2.13;;
9801;SDS011;4940;50.900;4.672;2022-07-29T04:41:23;1.77;;;1.67;;
9801;SDS011;4940;50.900;4.672;2022-07-29T04:43:50;2.17;;;1.98;;
9801;SDS011;4940;50.900;4.672;2022-07-29T04:46:18;2.85;;;1.90;;
9801;SDS011;4940;50.900;4.672;2022-07-29T04:48:46;2.30;;;2.10;;
9801;SDS011;4940;50.900;4.672;2022-07-29T04:51:14;5.30;;;2.05;;
9801;SDS011;4940;50.900;4.672;2022-07-29T04:53:41;2.67;;;1.73;;
9801;SDS011;4940;50.900;4.672;2022-07-29T04:56:09;3.38;;;2.15;;
9801;SDS011;4940;50.900;4.672;2022-07-29T04:58:36;4.70;;;1.70;;
9801;SDS011;4940;50.900;4.672;2022-07-29T05:01:04;2.75;;;2.17;;
9801;SDS011;4940;50.900;4.672;2022-07-29T05:03:31;4.10;;;1.98;;
9801;SDS011;4940;50.900;4.672;2022-07-29T05:05:59;2.40;;;2.17;;
9801;SDS011;4940;50.900;4.672;2022-07-29T05:08:27;3.17;;;1.92;;
9801;SDS011;4940;50.900;4.672;2022-07-29T05:10:54;2.53;;;2.08;;
9801;SDS011;4940;50.900;4.672;2022-07-29T05:13:21;4.55;;;2.20;;
9801;SDS011;4940;50.900;4.672;2022-07-29T05:15:48;3.38;;;2.15;;
9801;SDS011;4940;50.900;4.672;2022-07-29T05:18:16;2.60;;;2.13;;
9801;SDS011;4940;50.900;4.672;2022-07-29T05:20:43;5.18;;;2.38;;
9801;SDS011;4940;50.900;4.672;2022-07-29T05:23:12;7.57;;;3.45;;
9801;SDS011;4940;50.900;4.672;2022-07-29T05:25:39;2.35;;;2.13;;
9801;SDS011;4940;50.900;4.672;2022-07-29T05:28:07;3.35;;;2.40;;
9801;SDS011;4940;50.900;4.672;2022-07-29T05:30:34;4.15;;;2.60;;
9801;SDS011;4940;50.900;4.672;2022-07-29T05:33:01;3.05;;;2.72;;
9801;SDS011;4940;50.900;4.672;2022-07-29T05:35:29;2.92;;;2.30;;
9801;SDS011;4940;50.900;4.672;2022-07-29T05:37:56;4.68;;;2.58;;
9801;SDS011;4940;50.900;4.672;2022-07-29T05:40:24;3.65;;;2.80;;
9801;SDS011;4940;50.900;4.672;2022-07-29T05:42:51;2.60;;;2.40;;
9801;SDS011;4940;50.900;4.672;2022-07-29T05:45:19;2.90;;;2.60;;
9801;SDS011;4940;50.900;4.672;2022-07-29T05:47:46;5.45;;;2.70;;
9801;SDS011;4940;50.900;4.672;2022-07-29T05:50:13;3.15;;;2.40;;
9801;SDS011;4940;50.900;4.672;2022-07-29T05:52:40;3.22;;;2.13;;
9801;SDS011;4940;50.900;4.672;2022-07-29T05:55:07;4.70;;;2.05;;
9801;SDS011;4940;50.900;4.672;2022-07-29T05:57:36;5.88;;;2.65;;
9801;SDS011;4940;50.900;4.672;2022-07-29T06:00:04;5.13;;;2.40;;
9801;SDS011;4940;50.900;4.672;2022-07-29T06:02:32;2.40;;;2.20;;
9801;SDS011;4940;50.900;4.672;2022-07-29T06:05:00;3.22;;;2.35;;
9801;SDS011;4940;50.900;4.672;2022-07-29T06:07:27;3.50;;;2.50;;
9801;SDS011;4940;50.900;4.672;2022-07-29T06:09:54;3.03;;;2.65;;
9801;SDS011;4940;50.900;4.672;2022-07-29T06:12:21;4.53;;;2.80;;
9801;SDS011;4940;50.900;4.672;2022-07-29T06:14:50;5.32;;;2.58;;
9801;SDS011;4940;50.900;4.672;2022-07-29T06:17:17;4.88;;;2.40;;
9801;SDS011;4940;50.900;4.672;2022-07-29T06:19:45;4.00;;;3.10;;
9801;SDS011;4940;50.900;4.672;2022-07-29T06:22:12;6.45;;;2.97;;
9801;SDS011;4940;50.900;4.672;2022-07-29T06:24:42;6.95;;;2.83;;
9801;SDS011;4940;50.900;4.672;2022-07-29T06:27:10;7.57;;;2.90;;
9801;SDS011;4940;50.900;4.672;2022-07-29T06:29:37;4.90;;;2.70;;
9801;SDS011;4940;50.900;4.672;2022-07-29T06:32:06;2.88;;;2.60;;
9801;SDS011;4940;50.900;4.672;2022-07-29T06:34:34;2.95;;;2.50;;
9801;SDS011;4940;50.900;4.672;2022-07-29T06:37:05;11.25;;;3.63;;
9801;SDS011;4940;50.900;4.672;2022-07-29T06:39:33;7.07;;;3.25;;
9801;SDS011;4940;50.900;4.672;2022-07-29T06:42:00;4.30;;;2.90;;
9801;SDS011;4940;50.900;4.672;2022-07-29T06:44:28;3.35;;;3.05;;
9801;SDS011;4940;50.900;4.672;2022-07-29T06:46:56;3.38;;;2.95;;
9801;SDS011;4940;50.900;4.672;2022-07-29T06:49:24;6.57;;;3.05;;
9801;SDS011;4940;50.900;4.672;2022-07-29T06:51:53;6.68;;;3.15;;
9801;SDS011;4940;50.900;4.672;2022-07-29T06:54:20;4.60;;;3.22;;
9801;SDS011;4940;50.900;4.672;2022-07-29T06:56:47;6.47;;;3.38;;
9801;SDS011;4940;50.900;4.672;2022-07-29T06:59:15;19.13;;;5.28;;
9801;SDS011;4940;50.900;4.672;2022-07-29T07:01:42;6.45;;;3.50;;
9801;SDS011;4940;50.900;4.672;2022-07-29T07:04:10;4.13;;;3.28;;
9801;SDS011;4940;50.900;4.672;2022-07-29T07:06:39;4.95;;;3.50;;
9801;SDS011;4940;50.900;4.672;2022-07-29T07:09:07;4.43;;;3.40;;
9801;SDS011;4940;50.900;4.672;2022-07-29T07:11:34;6.95;;;3.38;;
9801;SDS011;4940;50.900;4.672;2022-07-29T07:14:01;7.90;;;3.22;;
9801;SDS011;4940;50.900;4.672;2022-07-29T07:16:29;4.75;;;3.17;;
9801;SDS011;4940;50.900;4.672;2022-07-29T07:18:56;5.22;;;3.75;;
9801;SDS011;4940;50.900;4.672;2022-07-29T07:21:46;5.20;;;3.53;;
9801;SDS011;4940;50.900;4.672;2022-07-29T07:24:13;3.55;;;3.10;;
9801;SDS011;4940;50.900;4.672;2022-07-29T07:26:40;6.57;;;3.42;;
9801;SDS011;4940;50.900;4.672;2022-07-29T07:29:08;4.53;;;3.25;;
9801;SDS011;4940;50.900;4.672;2022-07-29T07:31:35;10.65;;;3.72;;
9801;SDS011;4940;50.900;4.672;2022-07-29T07:34:03;4.03;;;3.45;;
9801;SDS011;4940;50.900;4.672;2022-07-29T07:36:30;5.70;;;3.47;;
9801;SDS011;4940;50.900;4.672;2022-07-29T07:38:59;7.35;;;3.45;;
9801;SDS011;4940;50.900;4.672;2022-07-29T07:41:26;5.15;;;3.25;;
9801;SDS011;4940;50.900;4.672;2022-07-29T07:43:53;3.60;;;3.30;;
9801;SDS011;4940;50.900;4.672;2022-07-29T07:46:20;6.00;;;3.38;;
9801;SDS011;4940;50.900;4.672;2022-07-29T07:48:48;4.90;;;3.10;;
9801;SDS011;4940;50.900;4.672;2022-07-29T07:51:15;3.80;;;3.38;;
9801;SDS011;4940;50.900;4.672;2022-07-29T07:53:42;6.95;;;3.60;;
9801;SDS011;4940;50.900;4.672;2022-07-29T07:56:11;3.67;;;3.28;;
9801;SDS011;4940;50.900;4.672;2022-07-29T07:58:38;4.90;;;3.53;;
9801;SDS011;4940;50.900;4.672;2022-07-29T08:01:06;3.72;;;3.42;;
9801;SDS011;4940;50.900;4.672;2022-07-29T08:03:34;5.32;;;3.60;;
9801;SDS011;4940;50.900;4.672;2022-07-29T08:06:01;4.35;;;3.95;;
9801;SDS011;4940;50.900;4.672;2022-07-29T08:08:29;4.50;;;4.10;;
9801;SDS011;4940;50.900;4.672;2022-07-29T08:10:56;3.83;;;3.53;;
9801;SDS011;4940;50.900;4.672;2022-07-29T08:13:25;4.38;;;3.97;;
9801;SDS011;4940;50.900;4.672;2022-07-29T08:15:55;5.53;;;3.55;;
9801;SDS011;4940;50.900;4.672;2022-07-29T08:18:27;3.75;;;3.45;;
9801;SDS011;4940;50.900;4.672;2022-07-29T08:20:55;8.18;;;4.05;;
9801;SDS011;4940;50.900;4.672;2022-07-29T08:23:23;4.22;;;3.70;;
9801;SDS011;4940;50.900;4.672;2022-07-29T08:25:52;4.65;;;3.35;;
9801;SDS011;4940;50.900;4.672;2022-07-29T08:28:19;8.18;;;3.58;;
9801;SDS011;4940;50.900;4.672;2022-07-29T08:30:47;4.10;;;3.70;;
9801;SDS011;4940;50.900;4.672;2022-07-29T08:33:15;3.65;;;3.33;;
9801;SDS011;4940;50.900;4.672;2022-07-29T08:35:43;3.88;;;3.40;;
9801;SDS011;4940;50.900;4.672;2022-07-29T08:38:10;4.45;;;3.92;;
9801;SDS011;4940;50.900;4.672;2022-07-29T08:40:39;9.85;;;3.85;;
9801;SDS011;4940;50.900;4.672;2022-07-29T08:43:06;4.22;;;3.88;;
9801;SDS011;4940;50.900;4.672;2022-07-29T08:45:41;13.07;;;4.93;;
9801;SDS011;4940;50.900;4.672;2022-07-29T08:48:11;6.88;;;4.13;;
9801;SDS011;4940;50.900;4.672;2022-07-29T08:50:38;4.47;;;3.55;;
9801;SDS011;4940;50.900;4.672;2022-07-29T08:53:07;3.72;;;3.42;;
9801;SDS011;4940;50.900;4.672;2022-07-29T08:55:38;5.20;;;3.72;;
9801;SDS011;4940;50.900;4.672;2022-07-29T08:58:06;3.97;;;3.50;;
9801;SDS011;4940;50.900;4.672;2022-07-29T09:00:35;3.72;;;3.53;;
9801;SDS011;4940;50.900;4.672;2022-07-29T09:03:03;10.80;;;4.18;;
9801;SDS011;4940;50.900;4.672;2022-07-29T09:05:33;4.07;;;3.40;;
9801;SDS011;4940;50.900;4.672;2022-07-29T09:08:01;3.90;;;3.60;;
9801;SDS011;4940;50.900;4.672;2022-07-29T09:10:29;4.20;;;3.47;;
9801;SDS011;4940;50.900;4.672;2022-07-29T09:12:56;3.80;;;3.25;;
9801;SDS011;4940;50.900;4.672;2022-07-29T09:15:23;3.95;;;3.65;;
9801;SDS011;4940;50.900;4.672;2022-07-29T09:17:51;5.22;;;3.70;;
9801;SDS011;4940;50.900;4.672;2022-07-29T09:20:19;5.72;;;2.85;;
9801;SDS011;4940;50.900;4.672;2022-07-29T09:22:49;4.13;;;3.83;;
9801;SDS011;4940;50.900;4.672;2022-07-29T09:25:31;4.10;;;3.70;;
9801;SDS011;4940;50.900;4.672;2022-07-29T09:28:05;3.95;;;3.75;;
9801;SDS011;4940;50.900;4.672;2022-07-29T09:30:33;4.05;;;3.65;;
9801;SDS011;4940;50.900;4.672;2022-07-29T09:33:01;4.07;;;3.78;;
9801;SDS011;4940;50.900;4.672;2022-07-29T09:35:29;3.78;;;3.47;;
9801;SDS011;4940;50.900;4.672;2022-07-29T09:37:58;3.58;;;3.25;;
9801;SDS011;4940;50.900;4.672;2022-07-29T09:40:37;5.45;;;3.83;;
9801;SDS011;4940;50.900;4.672;2022-07-29T09:43:09;3.83;;;3.53;;
9801;SDS011;4940;50.900;4.672;2022-07-29T09:45:37;4.35;;;4.00;;
9801;SDS011;4940;50.900;4.672;2022-07-29T09:48:12;6.47;;;3.42;;
9801;SDS011;4940;50.900;4.672;2022-07-29T09:50:42;3.08;;;2.88;;
9801;SDS011;4940;50.900;4.672;2022-07-29T09:53:11;3.70;;;3.40;;
9801;SDS011;4940;50.900;4.672;2022-07-29T09:55:55;4.50;;;3.22;;
9801;SDS011;4940;50.900;4.672;2022-07-29T09:58:22;4.78;;;3.78;;
9801;SDS011;4940;50.900;4.672;2022-07-29T10:00:50;8.93;;;3.90;;
9801;SDS011;4940;50.900;4.672;2022-07-29T10:03:20;4.13;;;3.38;;
9801;SDS011;4940;50.900;4.672;2022-07-29T10:06:03;3.47;;;3.17;;
9801;SDS011;4940;50.900;4.672;2022-07-29T10:08:33;4.18;;;3.58;;
9801;SDS011;4940;50.900;4.672;2022-07-29T10:11:08;3.45;;;3.15;;
9801;SDS011;4940;50.900;4.672;2022-07-29T10:13:37;3.88;;;3.58;;
9801;SDS011;4940;50.900;4.672;2022-07-29T10:16:04;4.28;;;3.88;;
9801;SDS011;4940;50.900;4.672;2022-07-29T10:18:33;3.97;;;3.55;;
9801;SDS011;4940;50.900;4.672;2022-07-29T10:21:01;3.72;;;3.20;;
9801;SDS011;4940;50.900;4.672;2022-07-29T10:23:28;3.22;;;3.03;;
9801;SDS011;4940;50.900;4.672;2022-07-29T10:25:58;3.42;;;3.13;;
9801;SDS011;4940;50.900;4.672;2022-07-29T10:28:26;3.22;;;3.03;;
9801;SDS011;4940;50.900;4.672;2022-07-29T10:30:57;3.75;;;3.40;;
9801;SDS011;4940;50.900;4.672;2022-07-29T10:33:30;3.20;;;3.00;;
9801;SDS011;4940;50.900;4.672;2022-07-29T10:36:20;3.40;;;3.10;;
9801;SDS011;4940;50.900;4.672;2022-07-29T10:39:00;3.35;;;3.08;;
9801;SDS011;4940;50.900;4.672;2022-07-29T10:41:39;3.65;;;3.35;;
9801;SDS011;4940;50.900;4.672;2022-07-29T10:44:18;3.53;;;3.22;;
9801;SDS011;4940;50.900;4.672;2022-07-29T10:46:47;9.57;;;3.03;;
9801;SDS011;4940;50.900;4.672;2022-07-29T10:49:15;3.08;;;2.88;;
9801;SDS011;4940;50.900;4.672;2022-07-29T10:54:43;3.63;;;3.20;;
9801;SDS011;4940;50.900;4.672;2022-07-29T10:57:18;3.25;;;3.05;;
9801;SDS011;4940;50.900;4.672;2022-07-29T10:59:47;3.80;;;2.72;;
9801;SDS011;4940;50.900;4.672;2022-07-29T11:05:08;3.15;;;2.92;;
9801;SDS011;4940;50.900;4.672;2022-07-29T11:07:37;3.33;;;3.08;;
9801;SDS011;4940;50.900;4.672;2022-07-29T11:10:22;3.40;;;3.13;;
9801;SDS011;4940;50.900;4.672;2022-07-29T11:12:51;5.90;;;3.08;;
9801;SDS011;4940;50.900;4.672;2022-07-29T11:15:19;3.30;;;3.00;;
9801;SDS011;4940;50.900;4.672;2022-07-29T11:18:03;2.97;;;2.70;;
9801;SDS011;4940;50.900;4.672;2022-07-29T11:20:35;3.00;;;2.80;;
9801;SDS011;4940;50.900;4.672;2022-07-29T11:28:53;3.35;;;3.00;;
9801;SDS011;4940;50.900;4.672;2022-07-29T11:31:33;3.25;;;3.05;;
9801;SDS011;4940;50.900;4.672;2022-07-29T11:34:15;3.85;;;3.00;;
9801;SDS011;4940;50.900;4.672;2022-07-29T11:39:44;3.22;;;3.03;;
9801;SDS011;4940;50.900;4.672;2022-07-29T11:45:16;5.13;;;2.90;;
9801;SDS011;4940;50.900;4.672;2022-07-29T11:47:48;3.50;;;2.70;;
9801;SDS011;4940;50.900;4.672;2022-07-29T11:50:28;3.65;;;3.05;;
9801;SDS011;4940;50.900;4.672;2022-07-29T11:52:57;2.80;;;2.60;;
9801;SDS011;4940;50.900;4.672;2022-07-29T11:55:25;2.63;;;2.42;;
9801;SDS011;4940;50.900;4.672;2022-07-29T11:57:53;3.35;;;3.00;;
9801;SDS011;4940;50.900;4.672;2022-07-29T12:00:25;3.38;;;3.10;;
9801;SDS011;4940;50.900;4.672;2022-07-29T12:02:54;3.47;;;3.17;;
9801;SDS011;4940;50.900;4.672;2022-07-29T12:05:30;2.92;;;2.70;;
9801;SDS011;4940;50.900;4.672;2022-07-29T12:08:10;3.05;;;2.85;;
9801;SDS011;4940;50.900;4.672;2022-07-29T12:10:39;3.22;;;2.92;;
9801;SDS011;4940;50.900;4.672;2022-07-29T12:13:07;3.03;;;2.72;;
9801;SDS011;4940;50.900;4.672;2022-07-29T12:15:36;3.30;;;2.75;;
9801;SDS011;4940;50.900;4.672;2022-07-29T12:18:10;3.08;;;2.33;;
9801;SDS011;4940;50.900;4.672;2022-07-29T12:20:42;9.82;;;3.10;;
9801;SDS011;4940;50.900;4.672;2022-07-29T12:23:10;3.42;;;3.13;;
9801;SDS011;4940;50.900;4.672;2022-07-29T12:25:38;3.58;;;2.50;;
9801;SDS011;4940;50.900;4.672;2022-07-29T12:28:07;6.03;;;2.60;;
9801;SDS011;4940;50.900;4.672;2022-07-29T12:30:41;3.25;;;2.47;;
9801;SDS011;4940;50.900;4.672;2022-07-29T12:33:10;4.00;;;2.53;;
9801;SDS011;4940;50.900;4.672;2022-07-29T12:35:39;16.65;;;2.50;;
9801;SDS011;4940;50.900;4.672;2022-07-29T12:38:09;7.93;;;2.63;;
9801;SDS011;4940;50.900;4.672;2022-07-29T12:40:37;5.43;;;2.45;;
9801;SDS011;4940;50.900;4.672;2022-07-29T12:43:05;4.70;;;2.25;;
9801;SDS011;4940;50.900;4.672;2022-07-29T12:45:34;3.05;;;2.42;;
9801;SDS011;4940;50.900;4.672;2022-07-29T12:48:03;2.90;;;2.08;;
9801;SDS011;4940;50.900;4.672;2022-07-29T12:50:33;3.63;;;2.40;;
9801;SDS011;4940;50.900;4.672;2022-07-29T12:53:10;3.17;;;2.33;;
9801;SDS011;4940;50.900;4.672;2022-07-29T12:55:39;4.13;;;2.30;;
9801;SDS011;4940;50.900;4.672;2022-07-29T12:58:07;4.55;;;2.28;;
9801;SDS011;4940;50.900;4.672;2022-07-29T13:00:34;5.43;;;2.42;;
9801;SDS011;4940;50.900;4.672;2022-07-29T13:03:03;4.75;;;2.78;;
9801;SDS011;4940;50.900;4.672;2022-07-29T13:05:38;4.80;;;2.25;;
9801;SDS011;4940;50.900;4.672;2022-07-29T13:08:13;4.45;;;2.30;;
9801;SDS011;4940;50.900;4.672;2022-07-29T13:10:41;2.78;;;2.33;;
9801;SDS011;4940;50.900;4.672;2022-07-29T13:13:09;3.78;;;2.40;;
9801;SDS011;4940;50.900;4.672;2022-07-29T13:15:37;3.28;;;2.30;;
9801;SDS011;4940;50.900;4.672;2022-07-29T13:20:55;4.03;;;2.28;;
9801;SDS011;4940;50.900;4.672;2022-07-29T13:23:23;4.55;;;2.40;;
9801;SDS011;4940;50.900;4.672;2022-07-29T13:25:50;3.20;;;2.30;;
9801;SDS011;4940;50.900;4.672;2022-07-29T13:28:17;4.80;;;2.50;;
9801;SDS011;4940;50.900;4.672;2022-07-29T13:30:46;5.07;;;2.58;;
9801;SDS011;4940;50.900;4.672;2022-07-29T13:33:14;3.65;;;2.67;;
9801;SDS011;4940;50.900;4.672;2022-07-29T13:35:42;4.10;;;2.38;;
9801;SDS011;4940;50.900;4.672;2022-07-29T13:38:09;2.75;;;2.45;;
9801;SDS011;4940;50.900;4.672;2022-07-29T13:40:37;7.30;;;2.55;;
9801;SDS011;4940;50.900;4.672;2022-07-29T13:43:04;5.30;;;2.38;;
9801;SDS011;4940;50.900;4.672;2022-07-29T13:45:31;3.42;;;2.67;;
9801;SDS011;4940;50.900;4.672;2022-07-29T13:47:59;3.28;;;2.97;;
9801;SDS011;4940;50.900;4.672;2022-07-29T13:50:26;4.90;;;2.72;;
9801;SDS011;4940;50.900;4.672;2022-07-29T13:52:54;3.78;;;2.65;;
9801;SDS011;4940;50.900;4.672;2022-07-29T13:55:21;2.33;;;2.13;;
9801;SDS011;4940;50.900;4.672;2022-07-29T13:57:49;4.30;;;2.28;;
9801;SDS011;4940;50.900;4.672;2022-07-29T14:00:16;3.55;;;2.28;;
9801;SDS011;4940;50.900;4.672;2022-07-29T14:02:44;2.55;;;2.28;;
9801;SDS011;4940;50.900;4.672;2022-07-29T14:05:11;7.10;;;3.15;;
9801;SDS011;4940;50.900;4.672;2022-07-29T14:07:38;3.08;;;2.72;;
9801;SDS011;4940;50.900;4.672;2022-07-29T14:10:07;5.00;;;3.00;;
9801;SDS011;4940;50.900;4.672;2022-07-29T14:12:35;3.70;;;2.75;;
9801;SDS011;4940;50.900;4.672;2022-07-29T14:15:03;4.35;;;2.88;;
9801;SDS011;4940;50.900;4.672;2022-07-29T14:17:31;3.10;;;2.80;;
9801;SDS011;4940;50.900;4.672;2022-07-29T14:19:58;3.83;;;3.38;;
9801;SDS011;4940;50.900;4.672;2022-07-29T14:22:25;4.68;;;3.30;;
9801;SDS011;4940;50.900;4.672;2022-07-29T14:24:52;4.60;;;3.40;;
9801;SDS011;4940;50.900;4.672;2022-07-29T14:27:21;3.63;;;3.33;;
9801;SDS011;4940;50.900;4.672;2022-07-29T14:29:48;3.85;;;3.35;;
9801;SDS011;4940;50.900;4.672;2022-07-29T14:32:16;3.70;;;3.33;;
9801;SDS011;4940;50.900;4.672;2022-07-29T14:34:43;4.43;;;4.00;;
9801;SDS011;4940;50.900;4.672;2022-07-29T14:37:10;4.13;;;3.55;;
9801;SDS011;4940;50.900;4.672;2022-07-29T14:39:38;4.20;;;3.90;;
9801;SDS011;4940;50.900;4.672;2022-07-29T14:42:05;5.85;;;3.88;;
9801;SDS011;4940;50.900;4.672;2022-07-29T14:44:34;7.57;;;3.20;;
9801;SDS011;4940;50.900;4.672;2022-07-29T14:47:01;3.88;;;3.35;;
9801;SDS011;4940;50.900;4.672;2022-07-29T14:49:29;5.43;;;3.30;;
9801;SDS011;4940;50.900;4.672;2022-07-29T14:51:56;5.72;;;3.17;;
9801;SDS011;4940;50.900;4.672;2022-07-29T14:54:23;3.60;;;3.10;;
9801;SDS011;4940;50.900;4.672;2022-07-29T14:56:50;2.58;;;2.38;;
9801;SDS011;4940;50.900;4.672;2022-07-29T14:59:21;3.13;;;2.58;;
9801;SDS011;4940;50.900;4.672;2022-07-29T15:01:50;6.68;;;3.30;;
9801;SDS011;4940;50.900;4.672;2022-07-29T15:04:17;3.92;;;3.30;;
9801;SDS011;4940;50.900;4.672;2022-07-29T15:06:44;5.13;;;3.13;;
9801;SDS011;4940;50.900;4.672;2022-07-29T15:09:11;6.38;;;2.65;;
9801;SDS011;4940;50.900;4.672;2022-07-29T15:11:39;8.60;;;2.70;;
9801;SDS011;4940;50.900;4.672;2022-07-29T15:14:06;3.50;;;3.20;;
9801;SDS011;4940;50.900;4.672;2022-07-29T15:16:35;3.95;;;2.92;;
9801;SDS011;4940;50.900;4.672;2022-07-29T15:19:04;2.95;;;2.65;;
9801;SDS011;4940;50.900;4.672;2022-07-29T15:21:31;2.88;;;2.67;;
9801;SDS011;4940;50.900;4.672;2022-07-29T15:23:58;3.83;;;3.03;;
9801;SDS011;4940;50.900;4.672;2022-07-29T15:26:26;3.60;;;2.67;;
9801;SDS011;4940;50.900;4.672;2022-07-29T15:28:53;4.95;;;3.22;;
9801;SDS011;4940;50.900;4.672;2022-07-29T15:31:21;2.97;;;2.55;;
9801;SDS011;4940;50.900;4.672;2022-07-29T15:33:49;4.20;;;3.20;;
9801;SDS011;4940;50.900;4.672;2022-07-29T15:36:17;3.83;;;2.85;;
9801;SDS011;4940;50.900;4.672;2022-07-29T15:38:44;3.17;;;2.88;;
9801;SDS011;4940;50.900;4.672;2022-07-29T15:41:13;2.70;;;2.50;;
9801;SDS011;4940;50.900;4.672;2022-07-29T15:43:41;2.60;;;2.40;;
9801;SDS011;4940;50.900;4.672;2022-07-29T15:46:12;3.15;;;2.20;;
9801;SDS011;4940;50.900;4.672;2022-07-29T15:48:57;2.90;;;2.70;;